sensor_id;sensor_type;location;lat;lon;timestamp;temperature;humidity
48019;DHT22;33786;48.690;9.562;2023-03-09T00:00:00;10.40;99.90
48019;DHT22;33786;48.690;9.562;2023-03-09T00:02:27;10.50;99.90
48019;DHT22;33786;48.690;9.562;2023-03-09T00:04:53;10.50;99.90
48019;DHT22;33786;48.690;9.562;2023-03-09T00:07:21;10.50;99.90
48019;DHT22;33786;48.690;9.562;2023-03-09T00:09:47;10.50;99.90
48019;DHT22;33786;48.690;9.562;2023-03-09T00:12:14;10.50;99.90
48019;DHT22;33786;48.690;9.562;2023-03-09T00:14:41;10.60;99.90
48019;DHT22;33786;48.690;9.562;2023-03-09T00:17:08;10.60;99.90
48019;DHT22;33786;48.690;9.562;2023-03-09T00:19:35;10.70;99.90
48019;DHT22;33786;48.690;9.562;2023-03-09T00:22:01;10.70;99.90
48019;DHT22;33786;48.690;9.562;2023-03-09T00:24:28;10.70;99.90
48019;DHT22;33786;48.690;9.562;2023-03-09T00:26:58;10.70;99.90
48019;DHT22;33786;48.690;9.562;2023-03-09T00:29:26;10.80;99.90
48019;DHT22;33786;48.690;9.562;2023-03-09T00:31:53;10.80;99.90
48019;DHT22;33786;48.690;9.562;2023-03-09T00:34:20;10.90;99.90
48019;DHT22;33786;48.690;9.562;2023-03-09T00:36:48;10.90;99.90
48019;DHT22;33786;48.690;9.562;2023-03-09T00:39:15;11.00;99.90
48019;DHT22;33786;48.690;9.562;2023-03-09T00:41:42;11.10;99.90
48019;DHT22;33786;48.690;9.562;2023-03-09T00:44:09;11.00;99.90
48019;DHT22;33786;48.690;9.562;2023-03-09T00:46:36;11.00;99.90
48019;DHT22;33786;48.690;9.562;2023-03-09T00:49:03;10.90;99.90
48019;DHT22;33786;48.690;9.562;2023-03-09T00:51:33;11.00;99.90
48019;DHT22;33786;48.690;9.562;2023-03-09T00:54:00;11.00;99.90
48019;DHT22;33786;48.690;9.562;2023-03-09T00:56:27;10.70;99.90
48019;DHT22;33786;48.690;9.562;2023-03-09T00:58:56;10.50;99.90
48019;DHT22;33786;48.690;9.562;2023-03-09T01:01:23;10.40;99.90
48019;DHT22;33786;48.690;9.562;2023-03-09T01:03:50;10.20;99.90
48019;DHT22;33786;48.690;9.562;2023-03-09T01:06:21;10.20;99.90
48019;DHT22;33786;48.690;9.562;2023-03-09T01:08:48;10.20;99.90
48019;DHT22;33786;48.690;9.562;2023-03-09T01:11:15;10.10;99.90
48019;DHT22;33786;48.690;9.562;2023-03-09T01:13:43;10.10;99.90
48019;DHT22;33786;48.690;9.562;2023-03-09T01:16:09;10.10;99.90
48019;DHT22;33786;48.690;9.562;2023-03-09T01:18:36;10.10;99.90
48019;DHT22;33786;48.690;9.562;2023-03-09T01:21:03;10.00;99.90
48019;DHT22;33786;48.690;9.562;2023-03-09T01:23:30;10.00;99.90
48019;DHT22;33786;48.690;9.562;2023-03-09T01:25:57;9.90;99.90
48019;DHT22;33786;48.690;9.562;2023-03-09T01:28:23;10.00;99.90
48019;DHT22;33786;48.690;9.562;2023-03-09T01:30:50;9.90;99.90
48019;DHT22;33786;48.690;9.562;2023-03-09T01:33:17;9.90;99.90
48019;DHT22;33786;48.690;9.562;2023-03-09T01:35:44;9.90;99.90
48019;DHT22;33786;48.690;9.562;2023-03-09T01:38:10;9.90;99.90
48019;DHT22;33786;48.690;9.562;2023-03-09T01:40:37;10.00;99.90
48019;DHT22;33786;48.690;9.562;2023-03-09T01:48:16;9.90;99.90
48019;DHT22;33786;48.690;9.562;2023-03-09T01:50:43;9.80;99.90
48019;DHT22;33786;48.690;9.562;2023-03-09T01:53:13;9.70;99.90
48019;DHT22;33786;48.690;9.562;2023-03-09T01:55:42;9.60;99.90
48019;DHT22;33786;48.690;9.562;2023-03-09T01:58:15;9.60;99.90
48019;DHT22;33786;48.690;9.562;2023-03-09T02:00:43;9.50;99.90
48019;DHT22;33786;48.690;9.562;2023-03-09T02:03:18;9.50;99.90
48019;DHT22;33786;48.690;9.562;2023-03-09T02:05:49;9.50;99.90
48019;DHT22;33786;48.690;9.562;2023-03-09T02:08:18;9.50;99.90
48019;DHT22;33786;48.690;9.562;2023-03-09T02:10:46;9.40;99.90
48019;DHT22;33786;48.690;9.562;2023-03-09T02:13:16;9.40;99.90
48019;DHT22;33786;48.690;9.562;2023-03-09T02:15:43;9.30;99.90
48019;DHT22;33786;48.690;9.562;2023-03-09T02:18:10;9.30;99.90
48019;DHT22;33786;48.690;9.562;2023-03-09T02:20:46;9.20;99.90
48019;DHT22;33786;48.690;9.562;2023-03-09T02:25:48;9.10;99.90
48019;DHT22;33786;48.690;9.562;2023-03-09T02:28:17;9.10;99.90
48019;DHT22;33786;48.690;9.562;2023-03-09T02:30:44;9.00;99.90
48019;DHT22;33786;48.690;9.562;2023-03-09T02:33:21;9.00;99.90
48019;DHT22;33786;48.690;9.562;2023-03-09T02:35:52;8.90;99.90
48019;DHT22;33786;48.690;9.562;2023-03-09T02:38:19;8.90;99.90
48019;DHT22;33786;48.690;9.562;2023-03-09T02:40:46;8.90;99.90
48019;DHT22;33786;48.690;9.562;2023-03-09T02:43:13;8.90;99.90
48019;DHT22;33786;48.690;9.562;2023-03-09T02:45:41;8.80;99.90
48019;DHT22;33786;48.690;9.562;2023-03-09T02:48:08;8.80;99.90
48019;DHT22;33786;48.690;9.562;2023-03-09T02:50:35;8.80;99.90
48019;DHT22;33786;48.690;9.562;2023-03-09T02:53:01;8.80;99.90
48019;DHT22;33786;48.690;9.562;2023-03-09T02:55:29;8.80;99.90
48019;DHT22;33786;48.690;9.562;2023-03-09T02:57:55;8.80;99.90
48019;DHT22;33786;48.690;9.562;2023-03-09T03:00:22;8.70;99.90
48019;DHT22;33786;48.690;9.562;2023-03-09T03:02:49;8.70;99.90
48019;DHT22;33786;48.690;9.562;2023-03-09T03:05:16;8.70;99.90
48019;DHT22;33786;48.690;9.562;2023-03-09T03:07:43;8.70;99.90
48019;DHT22;33786;48.690;9.562;2023-03-09T03:10:10;8.70;99.90
48019;DHT22;33786;48.690;9.562;2023-03-09T03:12:37;8.70;99.90
48019;DHT22;33786;48.690;9.562;2023-03-09T03:15:04;8.70;99.90
48019;DHT22;33786;48.690;9.562;2023-03-09T03:17:31;8.70;99.90
48019;DHT22;33786;48.690;9.562;2023-03-09T03:19:58;8.80;99.90
48019;DHT22;33786;48.690;9.562;2023-03-09T03:22:25;8.80;99.90
48019;DHT22;33786;48.690;9.562;2023-03-09T03:24:51;8.80;99.90
48019;DHT22;33786;48.690;9.562;2023-03-09T03:27:18;8.90;99.90
48019;DHT22;33786;48.690;9.562;2023-03-09T03:29:45;8.90;99.90
48019;DHT22;33786;48.690;9.562;2023-03-09T03:32:12;9.00;99.90
48019;DHT22;33786;48.690;9.562;2023-03-09T03:34:39;9.10;99.90
48019;DHT22;33786;48.690;9.562;2023-03-09T03:37:05;9.00;99.90
48019;DHT22;33786;48.690;9.562;2023-03-09T03:39:32;9.00;99.90
48019;DHT22;33786;48.690;9.562;2023-03-09T03:41:59;9.00;99.90
48019;DHT22;33786;48.690;9.562;2023-03-09T03:44:26;9.00;99.90
48019;DHT22;33786;48.690;9.562;2023-03-09T03:46:53;9.00;99.90
48019;DHT22;33786;48.690;9.562;2023-03-09T03:49:20;9.00;99.90
48019;DHT22;33786;48.690;9.562;2023-03-09T03:51:48;8.90;99.90
48019;DHT22;33786;48.690;9.562;2023-03-09T03:54:14;8.90;99.90
48019;DHT22;33786;48.690;9.562;2023-03-09T03:56:41;8.90;99.90
48019;DHT22;33786;48.690;9.562;2023-03-09T03:59:08;8.90;99.90
48019;DHT22;33786;48.690;9.562;2023-03-09T04:01:34;8.90;99.90
48019;DHT22;33786;48.690;9.562;2023-03-09T04:04:01;8.90;99.90
48019;DHT22;33786;48.690;9.562;2023-03-09T04:06:28;8.90;99.90
48019;DHT22;33786;48.690;9.562;2023-03-09T04:08:55;8.90;99.90
48019;DHT22;33786;48.690;9.562;2023-03-09T04:11:22;8.90;99.90
48019;DHT22;33786;48.690;9.562;2023-03-09T04:13:48;8.80;99.90
48019;DHT22;33786;48.690;9.562;2023-03-09T04:16:16;8.90;99.90
48019;DHT22;33786;48.690;9.562;2023-03-09T04:18:43;8.90;99.90
48019;DHT22;33786;48.690;9.562;2023-03-09T04:21:09;9.00;99.90
48019;DHT22;33786;48.690;9.562;2023-03-09T04:23:36;9.00;99.90
48019;DHT22;33786;48.690;9.562;2023-03-09T04:26:03;9.00;99.90
48019;DHT22;33786;48.690;9.562;2023-03-09T04:28:30;9.00;99.90
48019;DHT22;33786;48.690;9.562;2023-03-09T04:30:57;9.00;99.90
48019;DHT22;33786;48.690;9.562;2023-03-09T04:33:24;9.00;99.90
48019;DHT22;33786;48.690;9.562;2023-03-09T04:35:51;9.00;99.90
48019;DHT22;33786;48.690;9.562;2023-03-09T04:38:17;9.00;99.90
48019;DHT22;33786;48.690;9.562;2023-03-09T04:40:44;8.90;99.90
48019;DHT22;33786;48.690;9.562;2023-03-09T04:43:11;9.00;99.90
48019;DHT22;33786;48.690;9.562;2023-03-09T04:45:37;8.90;99.90
48019;DHT22;33786;48.690;9.562;2023-03-09T04:48:04;9.00;99.90
48019;DHT22;33786;48.690;9.562;2023-03-09T04:50:31;9.00;99.90
48019;DHT22;33786;48.690;9.562;2023-03-09T04:52:57;9.00;99.90
48019;DHT22;33786;48.690;9.562;2023-03-09T04:55:24;8.90;99.90
48019;DHT22;33786;48.690;9.562;2023-03-09T04:57:51;8.90;99.90
48019;DHT22;33786;48.690;9.562;2023-03-09T05:00:18;8.80;99.90
48019;DHT22;33786;48.690;9.562;2023-03-09T05:02:44;8.80;99.90
48019;DHT22;33786;48.690;9.562;2023-03-09T05:05:11;8.80;99.90
48019;DHT22;33786;48.690;9.562;2023-03-09T05:07:38;8.80;99.90
48019;DHT22;33786;48.690;9.562;2023-03-09T05:10:05;8.80;99.90
48019;DHT22;33786;48.690;9.562;2023-03-09T05:12:32;8.80;99.90
48019;DHT22;33786;48.690;9.562;2023-03-09T05:14:58;8.80;99.90
48019;DHT22;33786;48.690;9.562;2023-03-09T05:17:25;8.70;99.90
48019;DHT22;33786;48.690;9.562;2023-03-09T05:19:52;8.80;99.90
48019;DHT22;33786;48.690;9.562;2023-03-09T05:22:19;8.70;99.90
48019;DHT22;33786;48.690;9.562;2023-03-09T05:24:45;8.70;99.90
48019;DHT22;33786;48.690;9.562;2023-03-09T05:27:12;8.70;99.90
48019;DHT22;33786;48.690;9.562;2023-03-09T05:29:39;8.70;99.90
48019;DHT22;33786;48.690;9.562;2023-03-09T05:32:06;8.70;99.90
48019;DHT22;33786;48.690;9.562;2023-03-09T05:34:33;8.70;99.90
48019;DHT22;33786;48.690;9.562;2023-03-09T05:37:00;8.70;99.90
48019;DHT22;33786;48.690;9.562;2023-03-09T05:39:27;8.70;99.90
48019;DHT22;33786;48.690;9.562;2023-03-09T05:41:54;8.60;99.90
48019;DHT22;33786;48.690;9.562;2023-03-09T05:44:20;8.60;99.90
48019;DHT22;33786;48.690;9.562;2023-03-09T05:46:47;8.70;99.90
48019;DHT22;33786;48.690;9.562;2023-03-09T05:49:14;8.60;99.90
48019;DHT22;33786;48.690;9.562;2023-03-09T05:51:40;8.70;99.90
48019;DHT22;33786;48.690;9.562;2023-03-09T05:54:07;8.70;99.90
48019;DHT22;33786;48.690;9.562;2023-03-09T05:56:34;8.70;99.90
48019;DHT22;33786;48.690;9.562;2023-03-09T05:59:01;8.70;99.90
48019;DHT22;33786;48.690;9.562;2023-03-09T06:01:28;8.70;99.90
48019;DHT22;33786;48.690;9.562;2023-03-09T06:03:55;8.60;99.90
48019;DHT22;33786;48.690;9.562;2023-03-09T06:06:22;8.60;99.90
48019;DHT22;33786;48.690;9.562;2023-03-09T06:08:49;8.70;99.90
48019;DHT22;33786;48.690;9.562;2023-03-09T06:11:16;8.70;99.90
48019;DHT22;33786;48.690;9.562;2023-03-09T06:13:42;8.70;99.90
48019;DHT22;33786;48.690;9.562;2023-03-09T06:16:11;8.50;99.90
48019;DHT22;33786;48.690;9.562;2023-03-09T06:18:38;8.60;99.90
48019;DHT22;33786;48.690;9.562;2023-03-09T06:21:05;8.60;99.90
48019;DHT22;33786;48.690;9.562;2023-03-09T06:23:33;8.70;99.90
48019;DHT22;33786;48.690;9.562;2023-03-09T06:26:02;8.70;99.90
48019;DHT22;33786;48.690;9.562;2023-03-09T06:28:29;8.70;99.90
48019;DHT22;33786;48.690;9.562;2023-03-09T06:30:56;8.80;99.90
48019;DHT22;33786;48.690;9.562;2023-03-09T06:33:23;8.80;99.90
48019;DHT22;33786;48.690;9.562;2023-03-09T06:35:49;8.90;99.90
48019;DHT22;33786;48.690;9.562;2023-03-09T06:38:16;9.10;99.90
48019;DHT22;33786;48.690;9.562;2023-03-09T06:40:43;9.90;99.90
48019;DHT22;33786;48.690;9.562;2023-03-09T06:43:12;11.10;99.90
48019;DHT22;33786;48.690;9.562;2023-03-09T06:45:38;12.90;99.90
48019;DHT22;33786;48.690;9.562;2023-03-09T06:48:05;13.80;99.90
48019;DHT22;33786;48.690;9.562;2023-03-09T06:50:32;14.10;99.50
48019;DHT22;33786;48.690;9.562;2023-03-09T06:52:58;13.50;99.90
48019;DHT22;33786;48.690;9.562;2023-03-09T06:55:25;12.90;99.90
48019;DHT22;33786;48.690;9.562;2023-03-09T06:57:52;12.50;99.90
48019;DHT22;33786;48.690;9.562;2023-03-09T07:00:18;12.10;99.90
48019;DHT22;33786;48.690;9.562;2023-03-09T07:02:45;11.80;99.90
48019;DHT22;33786;48.690;9.562;2023-03-09T07:05:12;11.40;99.90
48019;DHT22;33786;48.690;9.562;2023-03-09T07:07:39;11.00;99.90
48019;DHT22;33786;48.690;9.562;2023-03-09T07:10:11;10.90;99.90
48019;DHT22;33786;48.690;9.562;2023-03-09T07:12:39;11.10;99.90
48019;DHT22;33786;48.690;9.562;2023-03-09T07:15:06;11.70;99.90
48019;DHT22;33786;48.690;9.562;2023-03-09T07:17:33;12.60;99.90
48019;DHT22;33786;48.690;9.562;2023-03-09T07:19:59;13.10;99.90
48019;DHT22;33786;48.690;9.562;2023-03-09T07:22:26;13.00;99.90
48019;DHT22;33786;48.690;9.562;2023-03-09T07:24:53;12.90;99.90
48019;DHT22;33786;48.690;9.562;2023-03-09T07:27:20;13.10;99.90
48019;DHT22;33786;48.690;9.562;2023-03-09T07:29:46;13.70;99.90
48019;DHT22;33786;48.690;9.562;2023-03-09T07:32:13;13.60;99.90
48019;DHT22;33786;48.690;9.562;2023-03-09T07:34:40;13.50;99.90
48019;DHT22;33786;48.690;9.562;2023-03-09T07:37:07;13.20;99.90
48019;DHT22;33786;48.690;9.562;2023-03-09T07:39:33;14.20;99.50
48019;DHT22;33786;48.690;9.562;2023-03-09T07:42:00;14.50;98.20
48019;DHT22;33786;48.690;9.562;2023-03-09T07:44:27;14.70;98.20
48019;DHT22;33786;48.690;9.562;2023-03-09T07:46:54;15.50;96.70
48019;DHT22;33786;48.690;9.562;2023-03-09T07:49:21;16.80;94.50
48019;DHT22;33786;48.690;9.562;2023-03-09T07:51:48;18.80;91.40
48019;DHT22;33786;48.690;9.562;2023-03-09T07:54:15;20.00;87.30
48019;DHT22;33786;48.690;9.562;2023-03-09T07:56:41;20.30;84.80
48019;DHT22;33786;48.690;9.562;2023-03-09T07:59:15;19.00;87.40
48019;DHT22;33786;48.690;9.562;2023-03-09T08:01:42;18.20;87.90
48019;DHT22;33786;48.690;9.562;2023-03-09T08:04:09;17.10;90.60
48019;DHT22;33786;48.690;9.562;2023-03-09T08:06:39;16.30;92.10
48019;DHT22;33786;48.690;9.562;2023-03-09T08:09:06;15.60;92.90
48019;DHT22;33786;48.690;9.562;2023-03-09T08:11:33;14.60;94.10
48019;DHT22;33786;48.690;9.562;2023-03-09T08:14:00;13.90;96.00
48019;DHT22;33786;48.690;9.562;2023-03-09T08:16:27;13.20;97.20
48019;DHT22;33786;48.690;9.562;2023-03-09T08:18:53;13.00;97.50
48019;DHT22;33786;48.690;9.562;2023-03-09T08:21:21;12.60;98.10
48019;DHT22;33786;48.690;9.562;2023-03-09T08:23:47;12.20;99.10
48019;DHT22;33786;48.690;9.562;2023-03-09T08:26:15;12.10;99.20
48019;DHT22;33786;48.690;9.562;2023-03-09T08:28:42;12.40;99.60
48019;DHT22;33786;48.690;9.562;2023-03-09T08:31:10;12.30;99.80
48019;DHT22;33786;48.690;9.562;2023-03-09T08:33:37;12.00;99.70
48019;DHT22;33786;48.690;9.562;2023-03-09T08:36:38;12.10;99.90
48019;DHT22;33786;48.690;9.562;2023-03-09T08:38:57;12.00;99.80
48019;DHT22;33786;48.690;9.562;2023-03-09T08:41:24;11.70;99.90
48019;DHT22;33786;48.690;9.562;2023-03-09T08:43:51;11.50;99.90
48019;DHT22;33786;48.690;9.562;2023-03-09T08:46:18;11.40;99.90
48019;DHT22;33786;48.690;9.562;2023-03-09T08:48:46;11.40;99.90
48019;DHT22;33786;48.690;9.562;2023-03-09T08:51:12;11.30;99.90
48019;DHT22;33786;48.690;9.562;2023-03-09T08:53:39;11.40;99.90
48019;DHT22;33786;48.690;9.562;2023-03-09T08:56:07;11.50;99.90
48019;DHT22;33786;48.690;9.562;2023-03-09T08:58:34;11.50;99.90
48019;DHT22;33786;48.690;9.562;2023-03-09T09:01:02;11.60;99.90
48019;DHT22;33786;48.690;9.562;2023-03-09T09:03:30;11.60;99.90
48019;DHT22;33786;48.690;9.562;2023-03-09T09:06:04;11.70;99.90
48019;DHT22;33786;48.690;9.562;2023-03-09T09:08:31;11.70;99.90
48019;DHT22;33786;48.690;9.562;2023-03-09T09:10:57;11.70;99.90
48019;DHT22;33786;48.690;9.562;2023-03-09T09:13:24;11.80;99.90
48019;DHT22;33786;48.690;9.562;2023-03-09T09:15:52;11.90;99.90
48019;DHT22;33786;48.690;9.562;2023-03-09T09:18:19;11.90;99.90
48019;DHT22;33786;48.690;9.562;2023-03-09T09:20:49;12.00;99.90
48019;DHT22;33786;48.690;9.562;2023-03-09T09:23:16;12.20;99.90
48019;DHT22;33786;48.690;9.562;2023-03-09T09:25:43;12.40;99.90
48019;DHT22;33786;48.690;9.562;2023-03-09T09:28:09;12.30;99.90
48019;DHT22;33786;48.690;9.562;2023-03-09T09:30:36;12.20;99.90
48019;DHT22;33786;48.690;9.562;2023-03-09T09:33:03;12.40;99.90
48019;DHT22;33786;48.690;9.562;2023-03-09T09:35:31;12.40;99.90
48019;DHT22;33786;48.690;9.562;2023-03-09T09:37:58;12.40;99.90
48019;DHT22;33786;48.690;9.562;2023-03-09T09:40:26;12.40;99.90
48019;DHT22;33786;48.690;9.562;2023-03-09T09:42:53;12.40;99.90
48019;DHT22;33786;48.690;9.562;2023-03-09T09:47:47;12.50;99.90
48019;DHT22;33786;48.690;9.562;2023-03-09T09:50:14;12.40;99.90
48019;DHT22;33786;48.690;9.562;2023-03-09T10:03:03;11.40;99.90
48019;DHT22;33786;48.690;9.562;2023-03-09T10:08:00;11.50;99.90
48019;DHT22;33786;48.690;9.562;2023-03-09T10:10:28;11.90;99.90
48019;DHT22;33786;48.690;9.562;2023-03-09T10:12:56;12.30;99.90
48019;DHT22;33786;48.690;9.562;2023-03-09T10:15:27;12.70;99.90
48019;DHT22;33786;48.690;9.562;2023-03-09T10:20:32;13.60;99.90
48019;DHT22;33786;48.690;9.562;2023-03-09T10:22:59;13.30;99.90
48019;DHT22;33786;48.690;9.562;2023-03-09T10:25:28;13.20;99.90
48019;DHT22;33786;48.690;9.562;2023-03-09T10:28:04;13.00;99.90
48019;DHT22;33786;48.690;9.562;2023-03-09T10:38:21;12.60;99.90
48019;DHT22;33786;48.690;9.562;2023-03-09T10:40:54;12.60;99.90
48019;DHT22;33786;48.690;9.562;2023-03-09T10:45:52;13.00;99.90
48019;DHT22;33786;48.690;9.562;2023-03-09T10:48:20;13.00;99.60
48019;DHT22;33786;48.690;9.562;2023-03-09T10:50:55;12.70;99.40
48019;DHT22;33786;48.690;9.562;2023-03-09T10:53:23;12.70;99.90
48019;DHT22;33786;48.690;9.562;2023-03-09T10:55:52;12.80;99.50
48019;DHT22;33786;48.690;9.562;2023-03-09T10:58:31;13.30;99.60
48019;DHT22;33786;48.690;9.562;2023-03-09T11:01:02;13.50;98.60
48019;DHT22;33786;48.690;9.562;2023-03-09T11:03:40;13.90;98.10
48019;DHT22;33786;48.690;9.562;2023-03-09T11:08:34;16.90;94.10
48019;DHT22;33786;48.690;9.562;2023-03-09T11:11:22;16.90;93.20
48019;DHT22;33786;48.690;9.562;2023-03-09T11:13:51;17.00;92.40
48019;DHT22;33786;48.690;9.562;2023-03-09T11:16:23;17.50;91.40
48019;DHT22;33786;48.690;9.562;2023-03-09T11:19:03;17.30;91.60
48019;DHT22;33786;48.690;9.562;2023-03-09T11:21:30;17.70;90.80
48019;DHT22;33786;48.690;9.562;2023-03-09T11:23:57;18.70;90.10
48019;DHT22;33786;48.690;9.562;2023-03-09T11:26:45;18.80;89.40
48019;DHT22;33786;48.690;9.562;2023-03-09T11:31:43;17.60;90.00
48019;DHT22;33786;48.690;9.562;2023-03-09T11:34:12;18.30;90.10
48019;DHT22;33786;48.690;9.562;2023-03-09T11:36:46;19.40;86.40
48019;DHT22;33786;48.690;9.562;2023-03-09T11:39:19;19.80;84.20
48019;DHT22;33786;48.690;9.562;2023-03-09T11:41:47;19.10;85.20
48019;DHT22;33786;48.690;9.562;2023-03-09T11:44:23;18.90;83.60
48019;DHT22;33786;48.690;9.562;2023-03-09T11:46:50;18.60;84.90
48019;DHT22;33786;48.690;9.562;2023-03-09T11:49:20;18.10;83.80
48019;DHT22;33786;48.690;9.562;2023-03-09T11:51:51;17.40;85.70
48019;DHT22;33786;48.690;9.562;2023-03-09T11:54:38;17.00;86.80
48019;DHT22;33786;48.690;9.562;2023-03-09T11:57:08;16.50;88.10
48019;DHT22;33786;48.690;9.562;2023-03-09T11:59:49;16.30;88.30
48019;DHT22;33786;48.690;9.562;2023-03-09T12:04:46;15.80;90.00
48019;DHT22;33786;48.690;9.562;2023-03-09T12:07:17;16.00;90.70
48019;DHT22;33786;48.690;9.562;2023-03-09T12:14:55;15.50;90.20
48019;DHT22;33786;48.690;9.562;2023-03-09T12:17:24;15.30;89.80
48019;DHT22;33786;48.690;9.562;2023-03-09T12:19:54;15.00;90.90
48019;DHT22;33786;48.690;9.562;2023-03-09T12:22:36;15.00;90.70
48019;DHT22;33786;48.690;9.562;2023-03-09T12:25:03;14.80;90.80
48019;DHT22;33786;48.690;9.562;2023-03-09T12:27:32;14.40;91.30
48019;DHT22;33786;48.690;9.562;2023-03-09T12:34:56;14.40;91.30
48019;DHT22;33786;48.690;9.562;2023-03-09T12:42:56;14.70;91.10
48019;DHT22;33786;48.690;9.562;2023-03-09T12:57:39;14.70;90.40
48019;DHT22;33786;48.690;9.562;2023-03-09T13:00:19;14.50;90.80
48019;DHT22;33786;48.690;9.562;2023-03-09T13:02:50;14.30;91.10
48019;DHT22;33786;48.690;9.562;2023-03-09T13:05:24;14.20;91.10
48019;DHT22;33786;48.690;9.562;2023-03-09T13:07:52;14.20;91.40
48019;DHT22;33786;48.690;9.562;2023-03-09T13:10:26;14.30;91.90
48019;DHT22;33786;48.690;9.562;2023-03-09T13:12:54;14.20;91.60
48019;DHT22;33786;48.690;9.562;2023-03-09T13:15:25;14.10;91.70
48019;DHT22;33786;48.690;9.562;2023-03-09T13:18:11;14.00;91.70
48019;DHT22;33786;48.690;9.562;2023-03-09T13:20:38;14.10;91.70
48019;DHT22;33786;48.690;9.562;2023-03-09T13:23:13;14.00;91.50
48019;DHT22;33786;48.690;9.562;2023-03-09T13:31:02;13.70;92.00
48019;DHT22;33786;48.690;9.562;2023-03-09T13:33:31;13.70;92.50
48019;DHT22;33786;48.690;9.562;2023-03-09T13:36:04;13.80;92.00
48019;DHT22;33786;48.690;9.562;2023-03-09T13:38:33;13.70;92.30
48019;DHT22;33786;48.690;9.562;2023-03-09T13:41:01;13.90;92.40
48019;DHT22;33786;48.690;9.562;2023-03-09T13:43:30;14.00;92.40
48019;DHT22;33786;48.690;9.562;2023-03-09T13:46:02;14.00;91.80
48019;DHT22;33786;48.690;9.562;2023-03-09T13:48:30;14.00;92.20
48019;DHT22;33786;48.690;9.562;2023-03-09T13:50:57;13.90;92.00
48019;DHT22;33786;48.690;9.562;2023-03-09T13:53:25;13.90;91.70
48019;DHT22;33786;48.690;9.562;2023-03-09T13:55:56;14.20;92.10
48019;DHT22;33786;48.690;9.562;2023-03-09T13:58:23;14.20;92.00
48019;DHT22;33786;48.690;9.562;2023-03-09T14:03:18;14.50;91.70
48019;DHT22;33786;48.690;9.562;2023-03-09T14:09:05;14.60;91.80
48019;DHT22;33786;48.690;9.562;2023-03-09T14:11:40;14.40;91.50
48019;DHT22;33786;48.690;9.562;2023-03-09T14:14:13;14.20;91.80
48019;DHT22;33786;48.690;9.562;2023-03-09T14:16:44;14.20;92.20
48019;DHT22;33786;48.690;9.562;2023-03-09T14:19:45;14.30;91.90
48019;DHT22;33786;48.690;9.562;2023-03-09T14:22:04;14.20;92.30
48019;DHT22;33786;48.690;9.562;2023-03-09T14:24:33;13.90;91.90
48019;DHT22;33786;48.690;9.562;2023-03-09T14:29:39;13.70;92.50
48019;DHT22;33786;48.690;9.562;2023-03-09T14:34:50;13.70;92.40
48019;DHT22;33786;48.690;9.562;2023-03-09T14:37:29;13.60;92.40
48019;DHT22;33786;48.690;9.562;2023-03-09T14:39:57;13.80;92.40
48019;DHT22;33786;48.690;9.562;2023-03-09T14:42:27;13.70;92.10
48019;DHT22;33786;48.690;9.562;2023-03-09T14:47:24;13.60;92.50
48019;DHT22;33786;48.690;9.562;2023-03-09T14:49:51;13.70;92.60
48019;DHT22;33786;48.690;9.562;2023-03-09T14:52:19;13.80;92.40
48019;DHT22;33786;48.690;9.562;2023-03-09T14:54:47;13.80;92.90
48019;DHT22;33786;48.690;9.562;2023-03-09T14:57:14;14.00;92.80
48019;DHT22;33786;48.690;9.562;2023-03-09T14:59:41;14.10;92.30
48019;DHT22;33786;48.690;9.562;2023-03-09T15:02:09;14.00;92.30
48019;DHT22;33786;48.690;9.562;2023-03-09T15:04:36;14.00;92.40
48019;DHT22;33786;48.690;9.562;2023-03-09T15:07:03;14.00;92.40
48019;DHT22;33786;48.690;9.562;2023-03-09T15:09:31;13.80;91.70
48019;DHT22;33786;48.690;9.562;2023-03-09T15:11:59;13.80;92.60
48019;DHT22;33786;48.690;9.562;2023-03-09T15:14:27;13.80;92.60
48019;DHT22;33786;48.690;9.562;2023-03-09T15:16:58;13.70;92.40
48019;DHT22;33786;48.690;9.562;2023-03-09T15:19:24;13.70;92.60
48019;DHT22;33786;48.690;9.562;2023-03-09T15:21:52;13.70;92.70
48019;DHT22;33786;48.690;9.562;2023-03-09T15:24:21;13.70;92.00
48019;DHT22;33786;48.690;9.562;2023-03-09T15:26:48;13.60;92.50
48019;DHT22;33786;48.690;9.562;2023-03-09T15:29:16;13.70;92.70
48019;DHT22;33786;48.690;9.562;2023-03-09T15:31:43;13.80;92.50
48019;DHT22;33786;48.690;9.562;2023-03-09T15:34:10;13.80;92.30
48019;DHT22;33786;48.690;9.562;2023-03-09T15:36:37;13.80;92.10
48019;DHT22;33786;48.690;9.562;2023-03-09T15:39:04;13.40;92.60
48019;DHT22;33786;48.690;9.562;2023-03-09T15:41:30;13.30;92.80
48019;DHT22;33786;48.690;9.562;2023-03-09T15:43:57;13.30;92.50
48019;DHT22;33786;48.690;9.562;2023-03-09T15:46:24;13.30;92.80
48019;DHT22;33786;48.690;9.562;2023-03-09T15:48:53;13.10;93.10
48019;DHT22;33786;48.690;9.562;2023-03-09T15:51:20;13.00;93.30
48019;DHT22;33786;48.690;9.562;2023-03-09T15:53:47;13.00;93.50
48019;DHT22;33786;48.690;9.562;2023-03-09T15:56:14;13.00;93.50
48019;DHT22;33786;48.690;9.562;2023-03-09T15:58:41;13.00;93.50
48019;DHT22;33786;48.690;9.562;2023-03-09T16:01:15;13.10;93.50
48019;DHT22;33786;48.690;9.562;2023-03-09T16:03:47;13.10;93.70
48019;DHT22;33786;48.690;9.562;2023-03-09T16:06:16;13.10;93.50
48019;DHT22;33786;48.690;9.562;2023-03-09T16:08:43;13.10;93.50
48019;DHT22;33786;48.690;9.562;2023-03-09T16:11:10;13.10;93.40
48019;DHT22;33786;48.690;9.562;2023-03-09T16:13:36;13.10;93.30
48019;DHT22;33786;48.690;9.562;2023-03-09T16:16:05;13.10;93.40
48019;DHT22;33786;48.690;9.562;2023-03-09T16:18:32;13.00;93.20
48019;DHT22;33786;48.690;9.562;2023-03-09T16:20:59;13.00;93.10
48019;DHT22;33786;48.690;9.562;2023-03-09T16:23:26;12.80;93.20
48019;DHT22;33786;48.690;9.562;2023-03-09T16:25:54;12.80;93.20
48019;DHT22;33786;48.690;9.562;2023-03-09T16:28:21;12.80;93.30
48019;DHT22;33786;48.690;9.562;2023-03-09T16:30:48;12.70;93.10
48019;DHT22;33786;48.690;9.562;2023-03-09T16:33:15;12.60;93.40
48019;DHT22;33786;48.690;9.562;2023-03-09T16:35:42;12.60;93.30
48019;DHT22;33786;48.690;9.562;2023-03-09T16:38:12;12.60;93.00
48019;DHT22;33786;48.690;9.562;2023-03-09T16:40:39;12.60;93.10
48019;DHT22;33786;48.690;9.562;2023-03-09T16:43:06;12.60;93.10
48019;DHT22;33786;48.690;9.562;2023-03-09T16:45:33;12.50;93.30
48019;DHT22;33786;48.690;9.562;2023-03-09T16:47:59;12.50;93.10
48019;DHT22;33786;48.690;9.562;2023-03-09T16:50:26;12.50;93.20
48019;DHT22;33786;48.690;9.562;2023-03-09T16:52:55;12.40;93.30
48019;DHT22;33786;48.690;9.562;2023-03-09T16:55:22;12.30;93.30
48019;DHT22;33786;48.690;9.562;2023-03-09T16:57:49;12.30;93.50
48019;DHT22;33786;48.690;9.562;2023-03-09T17:00:17;12.20;93.50
48019;DHT22;33786;48.690;9.562;2023-03-09T17:02:44;12.20;93.40
48019;DHT22;33786;48.690;9.562;2023-03-09T17:05:12;12.10;93.80
48019;DHT22;33786;48.690;9.562;2023-03-09T17:07:40;12.00;93.80
48019;DHT22;33786;48.690;9.562;2023-03-09T17:10:08;12.00;93.80